MKY weather

Mackay Airport
Mackay, Queensland, Australia

Public forecast

Using degrees Celsius for public forecast. Weather courtesy of forecast.io.

METAR (pilot weather report)

Retrieved 2018/10/18 15:00 UTC (28 minutes ago):

YBMK 181500Z AUTO 09007KT 9999 // BKN018 BKN029 24/20 Q1015

TAF (pilot weather forecast)

Forecast is more than 12 hours old.

Closest forecast is Hamilton Island Airport, 50.5 nm (93.5 km) NNW. Retrieved 2018/10/16 12:00 UTC (2 days ago):

TAF YBHM 161107Z 1612/1624 36009KT 9999 FEW020